LFMN/NCE METAR and TAF weather

Enter ICAO airport designator
Station Type Date Time Source
LFMN METAR 2020/07/09 07:00 UTC NOAA

LFMN 090700Z 08005KT CAVOK 26/19 Q1016 NOSIG


Station Type Date Time Source
LFMN Decoded METAR 2020/07/09 07:00 UTC NOAA

Nice, France (LFMN) 43-39N 007-12E 10M
Jul 09, 2020 - 03:00 AM EDT / 2020.07.09 0700 UTC
Wind: from the E (080 degrees) at 6 MPH (5 KT):0
Visibility: greater than 7 mile(s):0
Temperature: 78 F (26 C)
Dew Point: 66 F (19 C)
Relative Humidity: 65%
Pressure (altimeter): 30.00 in. Hg (1016 hPa)
ob: LFMN 090700Z 08005KT CAVOK 26/19 Q1016 NOSIG
cycle: 7

Station Type Date Time Source
LFMN TAF 2020/07/09 03:24 UTC NOAA

TAF LFMN 090200Z 0903/1009 VRB05KT CAVOK
TEMPO 0903/0905 34010KT
BECMG 0907/0909 14010KT
BECMG 0917/0919 VRB05KT PROB30
TEMPO 1000/1006 BKN010
BECMG 1007/1009 16010KT

Example: see airport list